Time;durP1;ratioP1;P1;durP2;ratioP2;P2;SDS_P1;SDS_P2;PMS_P1;PMS_P2;Temp;Humidity;BMP_temperature;BMP_pressure;BME280_temperature;BME280_humidity;BME280_pressure;Samples;Min_cycle;Max_cycle;Signal;HPM_P1;HPM_P2
2021/04/17 00:01:38;;;;;;;2.75;2.42;;;;;;;;;;3540601;40;20374;-72
2021/04/17 00:04:05;;;;;;;4.32;3.22;;;;;;;;;;3529379;40;20420;-71
2021/04/17 00:06:31;;;;;;;3.53;2.60;;;;;;;;;;3540629;40;20410;-72
2021/04/17 00:08:58;;;;;;;3.40;2.77;;;;;;;;;;3539660;40;20482;-72
2021/04/17 00:11:25;;;;;;;4.05;2.70;;;;;;;;;;3540744;40;20356;-72
2021/04/17 00:13:51;;;;;;;4.57;3.45;;;;;;;;;;3540614;40;20391;-73
2021/04/17 00:16:18;;;;;;;4.72;3.15;;;;;;;;;;3538994;40;20418;-73
2021/04/17 00:18:44;;;;;;;4.90;3.30;;;;;;;;;;3539307;40;20572;-72
2021/04/17 00:21:11;;;;;;;4.32;3.53;;;;;;;;;;3538760;40;20780;-71
2021/04/17 00:23:37;;;;;;;3.90;3.50;;;;;;;;;;3540497;40;20415;-72
2021/04/17 00:26:03;;;;;;;3.55;3.25;;;;;;;;;;3540086;40;20420;-72
2021/04/17 00:28:30;;;;;;;4.72;3.28;;;;;;;;;;3540662;40;20414;-72
2021/04/17 00:30:57;;;;;;;3.95;3.40;;;;;;;;;;3531511;40;20425;-72
2021/04/17 00:33:24;;;;;;;3.92;3.50;;;;;;;;;;3541066;40;20406;-73
2021/04/17 00:35:50;;;;;;;4.43;3.90;;;;;;;;;;3542182;40;20368;-71
2021/04/17 00:38:16;;;;;;;5.45;4.57;;;;;;;;;;3541776;40;20648;-71
2021/04/17 00:40:42;;;;;;;6.85;5.10;;;;;;;;;;3530603;40;20416;-72
2021/04/17 00:43:08;;;;;;;5.68;4.68;;;;;;;;;;3542036;40;20386;-72
2021/04/17 00:45:36;;;;;;;5.20;4.70;;;;;;;;;;3543671;40;20404;-70
2021/04/17 00:48:02;;;;;;;5.53;4.05;;;;;;;;;;3539875;40;20769;-72
2021/04/17 00:50:28;;;;;;;5.03;4.50;;;;;;;;;;3540017;40;20430;-72
2021/04/17 00:52:55;;;;;;;5.70;4.30;;;;;;;;;;3539931;40;20733;-73
2021/04/17 00:55:21;;;;;;;4.88;3.97;;;;;;;;;;3539965;40;20629;-72
2021/04/17 00:57:47;;;;;;;6.07;4.10;;;;;;;;;;3530043;40;20411;-72
2021/04/17 01:00:14;;;;;;;5.63;4.57;;;;;;;;;;3539830;40;20768;-70
2021/04/17 01:02:45;;;;;;;4.85;3.90;;;;;;;;;;3574997;23;20431;-66
2021/04/17 01:05:13;;;;;;;5.00;3.92;;;;;;;;;;3554837;40;20643;-65
2021/04/17 01:07:42;;;;;;;4.05;3.63;;;;;;;;;;3555585;40;20667;-64
2021/04/17 01:10:15;;;;;;;4.38;3.60;;;;;;;;;;3551524;40;20392;-63
2021/04/17 01:12:43;;;;;;;4.07;3.17;;;;;;;;;;3556060;40;20453;-64
2021/04/17 01:15:11;;;;;;;3.60;3.30;;;;;;;;;;3556110;40;20406;-64
2021/04/17 01:17:38;;;;;;;5.50;3.83;;;;;;;;;;3544769;40;20502;-64
2021/04/17 01:20:10;;;;;;;4.00;3.40;;;;;;;;;;3552297;40;20799;-64
2021/04/17 01:22:37;;;;;;;4.20;3.60;;;;;;;;;;3557591;40;20481;-64
2021/04/17 01:25:08;;;;;;;3.83;3.53;;;;;;;;;;3557611;40;20383;-64
2021/04/17 01:27:36;;;;;;;4.22;3.65;;;;;;;;;;3557418;40;20393;-63
2021/04/17 01:30:06;;;;;;;5.03;3.67;;;;;;;;;;3553403;40;20396;-64
2021/04/17 01:32:33;;;;;;;3.87;3.17;;;;;;;;;;3555567;40;20763;-64
2021/04/17 01:34:59;;;;;;;4.05;3.05;;;;;;;;;;3555259;40;20387;-64
2021/04/17 01:37:41;;;;;;;3.20;2.90;;;;;;;;;;3557130;40;20829;-64
2021/04/17 01:40:08;;;;;;;2.88;2.60;;;4.40;99.90;;;;;;3555502;40;20378;-64
2021/04/17 01:42:36;;;;;;;3.63;2.63;;;4.70;98.30;;;;;;3539489;40;20906;-65
2021/04/17 01:45:02;;;;;;;3.20;2.72;;;4.90;97.20;;;;;;3549057;40;20399;-64
2021/04/17 01:47:28;;;;;;;2.75;2.22;;;;;;;;;;3554488;40;20791;-64
2021/04/17 01:49:55;;;;;;;3.47;1.90;;;;;;;;;;3557215;40;20399;-64
2021/04/17 01:52:23;;;;;;;2.95;2.40;;;;;;;;;;3556139;40;20406;-64
2021/04/17 01:54:53;;;;;;;3.10;2.60;;;;;;;;;;3554310;40;20757;-65
2021/04/17 01:57:20;;;;;;;2.70;2.10;;;;;;;;;;3551378;40;20559;-64
2021/04/17 01:59:48;;;;;;;2.42;1.63;;;;;;;;;;3557263;40;20391;-64
2021/04/17 02:02:16;;;;;;;2.50;2.17;;;;;;;;;;3553306;40;20420;-64
2021/04/17 02:04:42;;;;;;;2.38;1.80;;;;;;;;;;3556787;40;20663;-64
2021/04/17 02:07:08;;;;;;;2.25;1.70;;;;;;;;;;3552763;40;20392;-64
2021/04/17 02:09:34;;;;;;;4.20;2.28;;;5.00;97.20;;;;;;3549579;40;20457;-64
2021/04/17 02:12:00;;;;;;;3.17;2.20;;;6.70;91.50;;;;;;3556807;40;20395;-65
2021/04/17 02:14:26;;;;;;;2.10;1.90;;;6.80;91.50;;;;;;3549021;40;20414;-65
2021/04/17 02:16:57;;;;;;;2.75;2.10;;;6.90;91.20;;;;;;3557307;40;20388;-65
2021/04/17 02:19:32;;;;;;;2.95;2.30;;;7.00;91.20;;;;;;3557162;40;20371;-64
2021/04/17 02:21:59;;;;;;;2.45;1.80;;;7.00;90.90;;;;;;3555776;40;20372;-65
2021/04/17 02:24:27;;;;;;;2.10;1.90;;;7.10;90.80;;;;;;3543753;40;20430;-64
2021/04/17 02:26:54;;;;;;;2.50;2.03;;;7.10;90.60;;;;;;3547587;40;20409;-64
2021/04/17 02:29:21;;;;;;;3.97;1.90;;;7.10;90.30;;;;;;3555525;40;20419;-64
2021/04/17 02:31:47;;;;;;;2.37;2.17;;;7.00;90.50;;;;;;3556769;40;20384;-64
2021/04/17 02:34:15;;;;;;;3.70;2.22;;;7.00;90.70;;;;;;3550979;40;20399;-64
2021/04/17 02:36:41;;;;;;;3.47;2.10;;;7.00;90.50;;;;;;3555206;40;20400;-64
2021/04/17 02:39:07;;;;;;;2.50;2.30;;;7.10;90.20;;;;;;3555885;40;20383;-65
2021/04/17 02:41:33;;;;;;;2.55;2.00;;;7.10;90.30;;;;;;3556243;40;20387;-64
2021/04/17 02:43:59;;;;;;;5.05;2.08;;;7.10;89.70;;;;;;3554915;40;20772;-64
2021/04/17 02:46:25;;;;;;;2.50;1.83;;;7.00;90.10;;;;;;3556817;40;20767;-63
2021/04/17 02:48:51;;;;;;;3.47;2.20;;;7.00;90.00;;;;;;3552265;40;20802;-63
2021/04/17 02:51:18;;;;;;;2.67;2.47;;;7.10;89.60;;;;;;3551354;40;20379;-63
2021/04/17 02:53:44;;;;;;;3.60;2.38;;;;;;;;;;3549828;40;20450;-63
2021/04/17 02:56:11;;;;;;;2.70;2.05;;;;;;;;;;3546070;40;20792;-71
2021/04/17 02:58:37;;;;;;;3.35;2.10;;;;;;;;;;3551665;40;20387;-71
2021/04/17 03:01:03;;;;;;;4.10;2.28;;;;;;;;;;3548988;40;20407;-72
2021/04/17 03:03:29;;;;;;;2.35;1.95;;;;;;;;;;3558078;40;20773;-73
2021/04/17 03:05:58;;;;;;;4.90;2.40;;;;;;;;;;3558146;40;20514;-71
2021/04/17 03:08:26;;;;;;;3.15;2.38;;;;;;;;;;3553822;40;20412;-72
2021/04/17 03:10:52;;;;;;;2.70;1.92;;;;;;;;;;3554910;40;20392;-71
2021/04/17 03:13:18;;;;;;;4.00;2.10;;;;;;;;;;3550753;40;20385;-71
2021/04/17 03:15:45;;;;;;;2.92;2.70;;;;;;;;;;3556552;40;20739;-74
2021/04/17 03:18:12;;;;;;;3.22;2.22;;;;;;;;;;3554583;40;20746;-73
2021/04/17 03:20:38;;;;;;;3.58;2.03;;;;;;;;;;3551929;40;20407;-72
2021/04/17 03:23:05;;;;;;;2.47;1.98;;;;;;;;;;3551775;40;20758;-71
2021/04/17 03:25:32;;;;;;;2.80;2.50;;;;;;;;;;3551617;40;20770;-71
2021/04/17 03:27:58;;;;;;;3.10;2.10;;;;;;;;;;3554549;40;20406;-72
2021/04/17 03:30:28;;;;;;;2.67;2.42;;;;;;;;;;3557030;40;20411;-72
2021/04/17 03:32:55;;;;;;;2.07;1.80;;;;;;;;;;3552758;40;20407;-72
2021/04/17 03:35:22;;;;;;;4.07;2.25;;;;;;;;;;3553486;40;20745;-72
2021/04/17 03:37:48;;;;;;;3.08;2.30;;;;;;;;;;3555970;40;20386;-71
2021/04/17 03:40:14;;;;;;;3.53;2.35;;;;;;;;;;3552301;40;20434;-72
2021/04/17 03:42:42;;;;;;;3.17;1.83;;;;;;;;;;3549877;40;20385;-71
2021/04/17 03:45:09;;;;;;;2.42;1.80;;;;;;;;;;3556852;40;20524;-75
2021/04/17 03:47:35;;;;;;;3.38;2.33;;;;;;;;;;3551100;40;20496;-71
2021/04/17 03:50:01;;;;;;;2.60;2.25;;;;;;;;;;3550984;40;20388;-71
2021/04/17 03:52:27;;;;;;;2.47;1.95;;;;;;;;;;3557243;40;20419;-72
2021/04/17 03:54:53;;;;;;;2.08;1.88;;;;;;;;;;3555096;40;20392;-72
2021/04/17 03:57:20;;;;;;;2.08;1.88;;;;;;;;;;3552499;40;20473;-73
2021/04/17 03:59:47;;;;;;;2.20;1.90;;;;;;;;;;3556798;40;20452;-72
2021/04/17 04:02:13;;;;;;;2.08;1.75;;;;;;;;;;3556776;40;20391;-72
2021/04/17 04:04:39;;;;;;;3.00;2.10;;;7.10;89.50;;;;;;3550890;40;20487;-71
2021/04/17 04:07:06;;;;;;;2.72;1.98;;;6.70;88.10;;;;;;3553551;40;20407;-71
2021/04/17 04:09:32;;;;;;;4.13;2.45;;;6.60;88.50;;;;;;3556735;40;20384;-71
2021/04/17 04:11:58;;;;;;;2.72;1.88;;;6.60;88.50;;;;;;3552749;40;20406;-73
2021/04/17 04:14:24;;;;;;;3.22;1.85;;;6.90;87.10;;;;;;3552872;40;20385;-72
2021/04/17 04:16:51;;;;;;;2.87;1.70;;;7.00;86.80;;;;;;3543104;40;20416;-71
2021/04/17 04:19:17;;;;;;;2.42;1.70;;;6.90;87.40;;;;;;3550835;40;20381;-72
2021/04/17 04:21:43;;;;;;;3.03;2.03;;;6.90;86.60;;;;;;3556693;40;20400;-73
2021/04/17 04:24:10;;;;;;;3.03;1.83;;;6.80;87.20;;;;;;3550205;40;20843;-73
2021/04/17 04:26:36;;;;;;;3.05;1.60;;;;;;;;;;3554772;40;20385;-71
2021/04/17 04:29:03;;;;;;;2.47;2.10;;;;;;;;;;3540827;40;20457;-71
2021/04/17 04:31:29;;;;;;;6.63;3.65;;;6.70;87.10;;;;;;3550970;40;20385;-72
2021/04/17 04:33:56;;;;;;;5.20;2.70;;;6.10;89.40;;;;;;3554209;40;20379;-76
2021/04/17 04:36:22;;;;;;;3.65;2.53;;;6.10;89.80;;;;;;3552695;40;20422;-72
2021/04/17 04:38:48;;;;;;;2.80;2.05;;;6.00;90.00;;;;;;3553283;40;20771;-71
2021/04/17 04:41:14;;;;;;;4.00;2.75;;;;;;;;;;3549819;40;20800;-77
2021/04/17 04:43:40;;;;;;;3.72;2.30;;;;;;;;;;3553502;40;20367;-71
2021/04/17 04:46:07;;;;;;;3.72;2.03;;;;;;;;;;3547151;40;20414;-72
2021/04/17 04:48:33;;;;;;;2.80;2.22;;;;;;;;;;3556462;40;20399;-71
2021/04/17 04:51:00;;;;;;;2.95;2.08;;;;;;;;;;3548996;40;20411;-72
2021/04/17 04:53:26;;;;;;;2.33;2.10;;;;;;;;;;3553359;40;20393;-72
2021/04/17 04:55:52;;;;;;;2.13;1.93;;;;;;;;;;3547675;40;20399;-72
2021/04/17 04:58:18;;;;;;;2.75;2.00;;;;;;;;;;3551706;40;20388;-71
2021/04/17 05:00:45;;;;;;;3.50;2.58;;;;;;;;;;3552480;40;20380;-71
2021/04/17 05:03:11;;;;;;;3.83;2.72;;;;;;;;;;3558287;40;20423;-72
2021/04/17 05:05:37;;;;;;;3.70;2.58;;;;;;;;;;3560647;40;20500;-72
2021/04/17 05:08:05;;;;;;;3.30;2.40;;;;;;;;;;3557816;40;20399;-72
2021/04/17 05:10:31;;;;;;;2.50;2.30;;;;;;;;;;3557784;40;20395;-72
2021/04/17 05:12:57;;;;;;;3.70;2.60;;;;;;;;;;3557805;40;20748;-72
2021/04/17 05:15:23;;;;;;;3.17;2.50;;;;;;;;;;3550714;40;20475;-72
2021/04/17 05:17:50;;;;;;;2.45;1.70;;;;;;;;;;3556943;40;20386;-72
2021/04/17 05:20:16;;;;;;;2.50;2.00;;;;;;;;;;3552733;40;20387;-71
2021/04/17 05:22:42;;;;;;;2.50;1.77;;;;;;;;;;3557508;40;20382;-71
2021/04/17 05:25:10;;;;;;;3.58;2.10;;;;;;;;;;3551012;40;20407;-73
2021/04/17 05:27:36;;;;;;;3.08;2.10;;;;;;;;;;3552832;40;20411;-72
2021/04/17 05:30:03;;;;;;;2.50;2.13;;;;;;;;;;3556281;40;20414;-72
2021/04/17 05:32:29;;;;;;;3.15;2.03;;;;;;;;;;3552905;40;20388;-71
2021/04/17 05:34:55;;;;;;;3.58;2.03;;;;;;;;;;3554502;40;20385;-71
2021/04/17 05:37:22;;;;;;;3.13;2.40;;;;;;;;;;3555934;40;20659;-75
2021/04/17 05:39:48;;;;;;;2.72;1.90;;;;;;;;;;3554665;40;20375;-72
2021/04/17 05:42:15;;;;;;;2.00;1.80;;;;;;;;;;3555735;40;20394;-72
2021/04/17 05:44:41;;;;;;;2.67;2.23;;;;;;;;;;3554760;40;20732;-72
2021/04/17 05:47:08;;;;;;;2.42;2.08;;;;;;;;;;3557447;40;20387;-71
2021/04/17 05:49:34;;;;;;;3.42;1.95;;;;;;;;;;3557606;40;20458;-71
2021/04/17 05:52:01;;;;;;;2.53;1.90;;;;;;;;;;3553246;40;20394;-72
2021/04/17 05:54:27;;;;;;;3.90;2.23;;;;;;;;;;3552157;40;20396;-72
2021/04/17 05:56:53;;;;;;;2.83;2.38;;;;;;;;;;3552319;40;20431;-73
2021/04/17 05:59:21;;;;;;;4.57;2.42;;;;;;;;;;3557616;40;20402;-72
2021/04/17 06:01:47;;;;;;;4.57;2.38;;;;;;;;;;3552382;40;20423;-71
2021/04/17 06:04:14;;;;;;;4.53;2.40;;;;;;;;;;3558025;40;20500;-71
2021/04/17 06:06:40;;;;;;;4.32;2.63;;;;;;;;;;3555390;40;20397;-72
2021/04/17 06:09:06;;;;;;;3.95;2.63;;;;;;;;;;3555270;40;20399;-72
2021/04/17 06:11:33;;;;;;;4.22;2.63;;;;;;;;;;3557469;40;20387;-72
2021/04/17 06:13:59;;;;;;;2.47;2.00;;;;;;;;;;3555259;40;20424;-71
2021/04/17 06:16:26;;;;;;;2.03;1.83;;;;;;;;;;3552752;40;20644;-72
2021/04/17 06:18:52;;;;;;;3.15;2.00;;;;;;;;;;3553630;40;20395;-71
2021/04/17 06:21:19;;;;;;;2.78;1.55;;;;;;;;;;3557290;40;20392;-72
2021/04/17 06:23:45;;;;;;;2.57;1.90;;;;;;;;;;3548190;40;20607;-71
2021/04/17 06:26:11;;;;;;;3.08;1.80;;;;;;;;;;3557227;40;20478;-72
2021/04/17 06:28:37;;;;;;;2.60;1.90;;;;;;;;;;3554081;40;20418;-72
2021/04/17 06:31:04;;;;;;;2.95;2.03;;;;;;;;;;3557357;40;20391;-73
2021/04/17 06:33:31;;;;;;;3.30;1.75;;;;;;;;;;3557556;40;20395;-71
2021/04/17 06:35:58;;;;;;;4.25;2.20;;;;;;;;;;3557535;40;20380;-71
2021/04/17 06:38:24;;;;;;;2.20;1.83;;;;;;;;;;3546547;40;20412;-72
2021/04/17 06:40:51;;;;;;;2.90;1.53;;;;;;;;;;3555218;40;20416;-70
2021/04/17 06:43:21;;;;;;;2.95;1.38;;;;;;;;;;3544811;40;20404;-71
2021/04/17 06:45:48;;;;;;;2.35;1.30;;;;;;;;;;3553711;40;20475;-71
2021/04/17 06:48:17;;;;;;;2.58;1.90;;;;;;;;;;3553021;40;20439;-72
2021/04/17 06:50:44;;;;;;;1.90;1.60;;;;;;;;;;3554386;40;20411;-72
2021/04/17 06:53:12;;;;;;;2.17;1.60;;;;;;;;;;3552539;40;20817;-71
2021/04/17 06:55:39;;;;;;;2.92;1.48;;;;;;;;;;3547802;40;20483;-72
2021/04/17 06:58:05;;;;;;;2.92;1.58;;;;;;;;;;3540425;40;20422;-72
2021/04/17 07:00:31;;;;;;;2.27;1.50;;;;;;;;;;3552821;40;20400;-71
2021/04/17 07:02:58;;;;;;;2.47;1.52;;;;;;;;;;3548627;40;20408;-71
2021/04/17 07:05:24;;;;;;;2.47;1.58;;;;;;;;;;3551704;40;20493;-71
2021/04/17 07:07:51;;;;;;;2.90;1.50;;;;;;;;;;3556877;40;20406;-70
2021/04/17 07:10:17;;;;;;;2.05;1.55;;;;;;;;;;3555138;40;20426;-71
2021/04/17 07:12:45;;;;;;;1.83;1.70;;;;;;;;;;3557199;40;20391;-71
2021/04/17 07:15:12;;;;;;;2.65;1.70;;;;;;;;;;3550218;40;20381;-73
2021/04/17 07:17:38;;;;;;;2.07;1.60;;;;;;;;;;3550522;40;20383;-71
2021/04/17 07:20:05;;;;;;;2.70;1.40;;;;;;;;;;3556859;40;20372;-72
2021/04/17 07:22:33;;;;;;;2.42;1.48;;;;;;;;;;3551514;40;20766;-71
2021/04/17 07:25:15;;;;;;;2.90;1.30;;;;;;;;;;3554143;40;20414;-75
2021/04/17 07:27:43;;;;;;;2.05;1.50;;;9.70;74.10;;;;;;3555186;40;20451;-71
2021/04/17 07:30:25;;;;;;;2.97;1.60;;;;;;;;;;3556925;40;20387;-72
2021/04/17 07:33:02;;;;;;;2.28;1.60;;;;;;;;;;3555962;40;20792;-71
2021/04/17 07:35:33;;;;;;;2.35;1.63;;;;;;;;;;3552621;40;20626;-72
2021/04/17 07:38:09;;;;;;;2.60;2.05;;;;;;;;;;3555570;40;20454;-78
2021/04/17 07:40:36;;;;;;;1.90;1.38;;;;;;;;;;3554999;40;20798;-71
2021/04/17 07:43:02;;;;;;;2.53;1.70;;;;;;;;;;3553572;40;20419;-69
2021/04/17 07:45:30;;;;;;;2.30;1.40;;;;;;;;;;3547266;40;20410;-71
2021/04/17 07:48:01;;;;;;;2.53;1.67;;;;;;;;;;3556140;40;20407;-71
2021/04/17 07:50:31;;;;;;;2.65;1.92;;;;;;;;;;3555663;40;20360;-72
2021/04/17 07:52:57;;;;;;;1.80;1.40;;;;;;;;;;3556054;40;20437;-73
2021/04/17 07:55:24;;;;;;;1.85;1.50;;;;;;;;;;3551917;40;20411;-72
2021/04/17 07:57:55;;;;;;;3.47;1.83;;;;;;;;;;3555974;40;20400;-72
2021/04/17 08:00:23;;;;;;;2.70;1.80;;;;;;;;;;3553337;40;20392;-71
2021/04/17 08:02:52;;;;;;;2.13;1.70;;;;;;;;;;3553779;40;20419;-71
2021/04/17 08:05:18;;;;;;;1.90;1.70;;;;;;;;;;3552588;40;20763;-71
2021/04/17 08:07:45;;;;;;;4.63;2.20;;;11.70;66.60;;;;;;3555605;40;20477;-70
2021/04/17 08:10:12;;;;;;;3.60;1.88;;;;;;;;;;3554238;40;20402;-71
2021/04/17 08:12:39;;;;;;;3.40;2.00;;;;;;;;;;3555425;40;20379;-71
2021/04/17 08:15:08;;;;;;;3.10;1.80;;;;;;;;;;3552875;40;20383;-72
2021/04/17 08:17:34;;;;;;;2.43;1.83;;;;;;;;;;3552209;40;20456;-73
2021/04/17 08:20:01;;;;;;;4.53;2.65;;;;;;;;;;3554639;40;20674;-72
2021/04/17 08:22:28;;;;;;;3.35;2.17;;;;;;;;;;3555943;40;20391;-71
2021/04/17 08:24:54;;;;;;;2.85;2.13;;;;;;;;;;3556614;40;20768;-71
2021/04/17 08:27:21;;;;;;;3.55;2.10;;;;;;;;;;3551138;40;20402;-71
2021/04/17 08:29:48;;;;;;;3.70;2.50;;;;;;;;;;3554471;40;20441;-71
2021/04/17 08:32:26;;;;;;;3.10;2.17;;;;;;;;;;3546464;40;20402;-71
2021/04/17 08:35:03;;;;;;;3.05;2.30;;;;;;;;;;3553973;40;20430;-71
2021/04/17 08:37:31;;;;;;;5.03;2.50;;;;;;;;;;3556124;40;20407;-71
2021/04/17 08:39:58;;;;;;;3.78;2.50;;;;;;;;;;3555407;40;20764;-72
2021/04/17 08:42:45;;;;;;;2.97;2.30;;;;;;;;;;3551657;40;20396;-71
2021/04/17 08:45:13;;;;;;;3.35;2.58;;;;;;;;;;3552340;40;20427;-71
2021/04/17 08:47:44;;;;;;;5.65;2.75;;;;;;;;;;3552030;40;20397;-73
2021/04/17 08:50:30;;;;;;;4.43;3.03;;;;;;;;;;3548413;40;20424;-71
2021/04/17 08:52:57;;;;;;;4.93;2.80;;;;;;;;;;3553173;40;20391;-72
2021/04/17 08:55:24;;;;;;;3.95;2.60;;;;;;;;;;3553221;40;20380;-72
2021/04/17 08:58:08;;;;;;;5.25;3.10;;;;;;;;;;3555251;40;20414;-71
2021/04/17 09:00:35;;;;;;;3.78;2.40;;;;;;;;;;3542371;40;20379;-71
2021/04/17 09:03:02;;;;;;;4.82;2.80;;;;;;;;;;3551711;40;20467;-71
2021/04/17 09:05:42;;;;;;;4.68;2.67;;;;;;;;;;3547613;40;20668;-70
2021/04/17 09:08:11;;;;;;;3.85;2.78;;;;;;;;;;3549563;40;20420;-70
2021/04/17 09:10:38;;;;;;;3.67;2.47;;;;;;;;;;3549866;40;20678;-70
2021/04/17 09:13:23;;;;;;;7.18;3.80;;;;;;;;;;3548996;40;20396;-71
2021/04/17 09:15:50;;;;;;;3.55;2.80;;;;;;;;;;3549742;40;20377;-70
2021/04/17 09:18:31;;;;;;;4.28;2.60;;;;;;;;;;3549437;40;20400;-70
2021/04/17 09:20:58;;;;;;;4.53;2.35;;;11.90;66.50;;;;;;3547222;40;20401;-71
2021/04/17 09:23:35;;;;;;;3.72;2.60;;;14.50;55.40;;;;;;3550463;40;20433;-71
2021/04/17 09:26:02;;;;;;;4.18;2.28;;;14.50;58.50;;;;;;3559267;40;20371;-70
2021/04/17 09:28:35;;;;;;;3.95;2.42;;;14.70;54.70;;;;;;3560119;40;20418;-70
2021/04/17 09:31:02;;;;;;;4.90;2.90;;;;;;;;;;3553973;40;20702;-70
2021/04/17 09:33:28;;;;;;;6.38;3.90;;;14.60;53.00;;;;;;3559190;40;20404;-70
2021/04/17 09:35:54;;;;;;;5.45;3.40;;;14.20;54.40;;;;;;3558828;40;20410;-70
2021/04/17 09:38:23;;;;;;;5.43;3.43;;;14.30;58.00;;;;;;3559536;40;20400;-73
2021/04/17 09:40:52;;;;;;;4.00;3.20;;;14.80;55.40;;;;;;3554941;40;20658;-71
2021/04/17 09:43:27;;;;;;;4.63;2.90;;;15.10;53.20;;;;;;3561344;40;20501;-71
2021/04/17 09:45:54;;;;;;;7.05;4.18;;;15.10;55.40;;;;;;3560042;40;20383;-71
2021/04/17 09:48:22;;;;;;;5.15;3.67;;;14.70;54.00;;;;;;3562053;40;20418;-71
2021/04/17 09:50:49;;;;;;;5.90;3.47;;;14.60;56.60;;;;;;3561662;40;20401;-69
2021/04/17 09:53:17;;;;;;;5.37;4.00;;;14.80;55.30;;;;;;3558776;40;20417;-70
2021/04/17 09:55:49;;;;;;;5.65;3.83;;;14.70;53.50;;;;;;3560579;40;20391;-71
2021/04/17 09:58:31;;;;;;;6.50;4.13;;;14.30;53.90;;;;;;3561602;40;20392;-71
2021/04/17 10:01:06;;;;;;;5.97;3.50;;;14.50;53.40;;;;;;3560531;40;20461;-71
2021/04/17 10:03:33;;;;;;;6.03;3.65;;;14.60;53.30;;;;;;3556915;40;20508;-72
2021/04/17 10:06:00;;;;;;;7.03;4.03;;;14.60;56.40;;;;;;3560152;40;20412;-69
2021/04/17 10:08:34;;;;;;;5.50;4.28;;;14.50;55.00;;;;;;3561555;40;20424;-70
2021/04/17 10:11:03;;;;;;;7.13;4.28;;;14.70;53.90;;;;;;3553336;40;20399;-70
2021/04/17 10:13:37;;;;;;;6.40;4.03;;;14.80;53.60;;;;;;3561316;40;20403;-70
2021/04/17 10:16:04;;;;;;;6.50;4.00;;;14.80;52.40;;;;;;3561684;40;20600;-70
2021/04/17 10:18:30;;;;;;;5.50;3.70;;;14.80;54.10;;;;;;3559836;40;20434;-70
2021/04/17 10:20:56;;;;;;;7.03;3.90;;;14.50;53.90;;;;;;3560887;40;20478;-70
2021/04/17 10:23:22;;;;;;;5.30;3.67;;;14.50;53.90;;;;;;3560050;40;20482;-70
2021/04/17 10:25:48;;;;;;;6.22;3.40;;;14.60;55.10;;;;;;3561162;40;20417;-71
2021/04/17 10:28:17;;;;;;;4.83;3.00;;;14.40;54.40;;;;;;3560761;40;20407;-70
2021/04/17 10:30:45;;;;;;;4.82;3.42;;;14.80;55.50;;;;;;3561304;40;20773;-70
2021/04/17 10:33:16;;;;;;;5.75;3.60;;;15.10;54.60;;;;;;3560870;40;20402;-70
2021/04/17 10:35:43;;;;;;;5.00;3.30;;;15.30;54.80;;;;;;3560600;40;20483;-70
2021/04/17 10:38:09;;;;;;;5.25;3.40;;;15.60;55.20;;;;;;3560762;40;20410;-70
2021/04/17 10:40:36;;;;;;;4.93;3.42;;;15.80;50.00;;;;;;3560811;40;20411;-70
2021/04/17 10:43:05;;;;;;;4.78;3.20;;;15.60;52.00;;;;;;3560945;40;20427;-70
2021/04/17 10:45:41;;;;;;;5.13;3.00;;;15.70;50.30;;;;;;3561506;40;21553;-71
2021/04/17 10:48:19;;;;;;;4.85;3.20;;;15.80;51.70;;;;;;3561309;40;20385;-70
2021/04/17 10:50:54;;;;;;;5.15;3.67;;;15.50;54.00;;;;;;3561078;40;20395;-71
2021/04/17 10:53:23;;;;;;;6.15;3.35;;;15.00;52.00;;;;;;3560732;40;20668;-70
2021/04/17 10:55:51;;;;;;;5.20;3.30;;;14.60;52.60;;;;;;3561409;40;20386;-71
2021/04/17 10:58:28;;;;;;;4.55;3.28;;;14.50;55.00;;;;;;3561348;40;20400;-70
2021/04/17 11:00:57;;;;;;;5.90;3.13;;;14.70;54.10;;;;;;3560527;40;20392;-69
2021/04/17 11:03:27;;;;;;;5.63;3.88;;;15.00;53.90;;;;;;3560763;40;20778;-69
2021/04/17 11:05:54;;;;;;;6.05;4.13;;;14.80;53.70;;;;;;3560934;40;20395;-70
2021/04/17 11:08:25;;;;;;;6.25;4.03;;;14.50;52.70;;;;;;3552467;40;20421;-70
2021/04/17 11:10:52;;;;;;;7.50;3.88;;;14.50;55.20;;;;;;3560108;40;20370;-70
2021/04/17 11:13:33;;;;;;;5.30;3.75;;;14.80;55.60;;;;;;3560364;40;20400;-70
2021/04/17 11:16:01;;;;;;;13.30;10.98;;;14.80;54.20;;;;;;3561077;40;20431;-70
2021/04/17 11:18:34;;;;;;;26.42;18.05;;;14.70;54.60;;;;;;3554763;40;20790;-69
2021/04/17 11:21:02;;;;;;;6.20;4.67;;;14.60;54.90;;;;;;3538970;40;20470;-70
2021/04/17 11:23:33;;;;;;;10.05;7.45;;;14.70;53.10;;;;;;3539232;40;20412;-69
2021/04/17 11:25:59;;;;;;;11.23;7.78;;;14.60;54.20;;;;;;3539223;40;20436;-68
2021/04/17 11:28:27;;;;;;;9.33;6.23;;;14.40;53.70;;;;;;3537356;40;20433;-70
2021/04/17 11:30:53;;;;;;;7.70;4.35;;;14.80;54.70;;;;;;3539711;40;20401;-69
2021/04/17 11:33:21;;;;;;;7.97;3.80;;;14.90;53.10;;;;;;3537861;40;20410;-70
2021/04/17 11:35:47;;;;;;;5.00;2.95;;;15.10;51.30;;;;;;3538988;40;20427;-70
2021/04/17 11:38:13;;;;;;;6.25;4.20;;;15.60;53.90;;;;;;3539108;40;20401;-70
2021/04/17 11:40:39;;;;;;;6.25;4.50;;;15.80;50.90;;;;;;3538423;40;20417;-69
2021/04/17 11:43:05;;;;;;;7.38;3.58;;;16.20;53.10;;;;;;3538311;40;20446;-70
2021/04/17 11:45:32;;;;;;;5.43;3.75;;;16.10;50.20;;;;;;3538704;40;20721;-69
2021/04/17 11:47:58;;;;;;;4.60;3.45;;;16.00;49.90;;;;;;3534125;40;20408;-69
2021/04/17 11:50:25;;;;;;;4.18;3.08;;;15.60;49.40;;;;;;3540288;40;20403;-70
2021/04/17 11:52:51;;;;;;;4.60;3.58;;;15.80;49.80;;;;;;3557843;40;20489;-70
2021/04/17 11:55:17;;;;;;;5.13;3.45;;;15.80;48.20;;;;;;3559494;40;20884;-70
2021/04/17 11:57:43;;;;;;;4.30;3.03;;;15.40;50.50;;;;;;3557645;40;20411;-70
2021/04/17 12:00:10;;;;;;;5.97;3.47;;;15.40;50.90;;;;;;3561414;40;20511;-69
2021/04/17 12:02:36;;;;;;;5.43;4.07;;;15.40;51.70;;;;;;3560475;40;20420;-71
2021/04/17 12:05:03;;;;;;;4.47;3.40;;;15.40;49.60;;;;;;3559398;40;20647;-71
2021/04/17 12:07:30;;;;;;;3.80;3.08;;;15.40;52.00;;;;;;3561577;40;20387;-69
2021/04/17 12:09:56;;;;;;;3.43;2.87;;;15.90;52.60;;;;;;3555466;40;20802;-69
2021/04/17 12:12:24;;;;;;;6.97;4.50;;;16.30;48.50;;;;;;3561033;40;20529;-71
2021/04/17 12:14:50;;;;;;;6.20;4.32;;;16.10;51.20;;;;;;3560852;40;20381;-69
2021/04/17 12:17:16;;;;;;;6.82;5.00;;;16.20;53.20;;;;;;3561225;40;20754;-69
2021/04/17 12:19:42;;;;;;;6.97;4.70;;;15.70;52.00;;;;;;3557431;40;20423;-70
2021/04/17 12:22:08;;;;;;;7.88;4.65;;;15.60;52.70;;;;;;3560191;40;20402;-70
2021/04/17 12:24:35;;;;;;;6.60;4.43;;;15.40;51.80;;;;;;3561236;40;20403;-70
2021/04/17 12:27:01;;;;;;;6.30;4.63;;;;;;;;;;3567277;40;20461;-69
2021/04/17 12:29:28;;;;;;;6.78;5.20;;;;;;;;;;3561071;40;20402;-68
2021/04/17 12:31:54;;;;;;;6.20;4.40;;;;;;;;;;3560483;40;20403;-69
2021/04/17 12:34:20;;;;;;;4.93;3.60;;;;;;;;;;3560029;40;20399;-69
2021/04/17 12:36:46;;;;;;;4.85;3.53;;;15.40;52.00;;;;;;3560457;40;20414;-70
2021/04/17 12:39:12;;;;;;;5.57;4.13;;;15.90;57.10;;;;;;3556795;40;20805;-69
2021/04/17 12:41:39;;;;;;;5.07;3.70;;;;;;;;;;3557274;40;20411;-70
2021/04/17 12:44:10;;;;;;;5.27;3.70;;;;;;;;;;3559498;40;20405;-70
2021/04/17 12:46:36;;;;;;;6.22;3.90;;;;;;;;;;3556747;40;20404;-70
2021/04/17 12:49:02;;;;;;;7.03;4.65;;;;;;;;;;3559641;40;20414;-69
2021/04/17 12:51:30;;;;;;;27.13;23.17;;;;;;;;;;3559727;40;20404;-70
2021/04/17 12:53:56;;;;;;;9.02;6.88;;;;;;;;;;3559877;40;20385;-71
2021/04/17 12:56:22;;;;;;;4.83;3.30;;;;;;;;;;3560130;40;20402;-70
2021/04/17 12:58:49;;;;;;;4.97;3.60;;;;;;;;;;3558556;40;20396;-70
2021/04/17 13:01:15;;;;;;;5.30;3.28;;;;;;;;;;3556941;40;20678;-70
2021/04/17 13:03:42;;;;;;;8.88;6.25;;;;;;;;;;3559750;40;20446;-70
2021/04/17 13:06:08;;;;;;;7.30;5.87;;;;;;;;;;3559438;40;20793;-69
2021/04/17 13:08:34;;;;;;;6.38;3.72;;;;;;;;;;3559262;40;20418;-70
2021/04/17 13:11:00;;;;;;;4.00;3.47;;;17.80;46.00;;;;;;3560595;40;20393;-70
2021/04/17 13:13:26;;;;;;;3.97;3.38;;;18.10;47.20;;;;;;3559038;40;20410;-69
2021/04/17 13:15:54;;;;;;;4.88;3.60;;;18.40;46.30;;;;;;3558968;40;20499;-69
2021/04/17 13:18:21;;;;;;;6.10;3.40;;;;;;;;;;3562001;40;20424;-69
2021/04/17 13:20:47;;;;;;;5.50;3.28;;;;;;;;;;3561206;40;20395;-68
2021/04/17 13:23:13;;;;;;;5.63;4.43;;;;;;;;;;3560180;40;20415;-69
2021/04/17 13:25:40;;;;;;;5.25;3.75;;;;;;;;;;3555451;40;20740;-69
2021/04/17 13:28:06;;;;;;;4.28;3.60;;;;;;;;;;3561436;40;20417;-68
2021/04/17 13:30:33;;;;;;;5.37;3.53;;;;;;;;;;3554091;40;20696;-70
2021/04/17 13:33:00;;;;;;;5.30;3.40;;;;;;;;;;3561851;40;20475;-69
2021/04/17 13:35:26;;;;;;;4.75;3.20;;;;;;;;;;3561089;40;20403;-69
2021/04/17 13:37:52;;;;;;;4.68;3.25;;;;;;;;;;3562163;40;20387;-69
2021/04/17 13:40:19;;;;;;;4.63;3.03;;;;;;;;;;3561369;40;20403;-69
2021/04/17 13:42:45;;;;;;;3.65;2.80;;;18.70;43.30;;;;;;3562821;40;20398;-69
2021/04/17 13:45:12;;;;;;;3.50;2.40;;;19.20;43.40;;;;;;3561808;40;20401;-69
2021/04/17 13:47:38;;;;;;;4.97;3.65;;;19.30;43.00;;;;;;3560373;40;20413;-69
2021/04/17 13:50:07;;;;;;;6.97;5.32;;;19.10;42.60;;;;;;3562931;40;20412;-71
2021/04/17 13:52:34;;;;;;;4.25;2.88;;;;;;;;;;3561301;40;20379;-72
2021/04/17 13:55:00;;;;;;;3.22;2.92;;;;;;;;;;3559005;40;20387;-71
2021/04/17 13:57:26;;;;;;;4.30;2.85;;;;;;;;;;3558545;40;20393;-70
2021/04/17 13:59:52;;;;;;;4.03;2.90;;;19.90;40.70;;;;;;3565238;40;20381;-70
2021/04/17 14:02:19;;;;;;;4.60;3.22;;;20.10;40.60;;;;;;3562317;40;20409;-70